sensor_id;sensor_type;location;lat;lon;timestamp;temperature;humidity
52381;DHT22;38310;52.796;6.942;2023-04-25T00:01:48;6.60;99.90
52381;DHT22;38310;52.796;6.942;2023-04-25T00:04:14;6.50;99.90
52381;DHT22;38310;52.796;6.942;2023-04-25T00:06:39;6.50;99.90
52381;DHT22;38310;52.796;6.942;2023-04-25T00:09:06;6.50;99.90
52381;DHT22;38310;52.796;6.942;2023-04-25T00:11:36;6.50;99.90
52381;DHT22;38310;52.796;6.942;2023-04-25T00:14:03;6.80;99.90
52381;DHT22;38310;52.796;6.942;2023-04-25T00:16:29;6.40;99.90
52381;DHT22;38310;52.796;6.942;2023-04-25T00:18:58;6.40;99.90
52381;DHT22;38310;52.796;6.942;2023-04-25T00:21:24;6.40;99.90
52381;DHT22;38310;52.796;6.942;2023-04-25T00:23:52;6.40;99.90
52381;DHT22;38310;52.796;6.942;2023-04-25T00:26:18;6.40;99.90
52381;DHT22;38310;52.796;6.942;2023-04-25T00:28:44;6.40;99.90
52381;DHT22;38310;52.796;6.942;2023-04-25T00:31:10;6.40;99.90
52381;DHT22;38310;52.796;6.942;2023-04-25T00:33:36;6.80;99.90
52381;DHT22;38310;52.796;6.942;2023-04-25T00:36:01;6.30;99.90
52381;DHT22;38310;52.796;6.942;2023-04-25T00:38:27;7.50;99.90
52381;DHT22;38310;52.796;6.942;2023-04-25T00:40:53;6.40;99.90
52381;DHT22;38310;52.796;6.942;2023-04-25T00:43:21;6.30;99.90
52381;DHT22;38310;52.796;6.942;2023-04-25T00:45:47;6.30;99.90
52381;DHT22;38310;52.796;6.942;2023-04-25T00:48:17;6.30;99.90
52381;DHT22;38310;52.796;6.942;2023-04-25T00:50:50;6.20;99.90
52381;DHT22;38310;52.796;6.942;2023-04-25T00:53:16;6.20;99.90
52381;DHT22;38310;52.796;6.942;2023-04-25T00:55:42;6.30;99.90
52381;DHT22;38310;52.796;6.942;2023-04-25T00:58:08;6.10;99.90
52381;DHT22;38310;52.796;6.942;2023-04-25T01:00:33;6.30;99.90
52381;DHT22;38310;52.796;6.942;2023-04-25T01:03:00;6.00;99.90
52381;DHT22;38310;52.796;6.942;2023-04-25T01:05:28;5.90;99.90
52381;DHT22;38310;52.796;6.942;2023-04-25T01:07:53;5.90;99.90
52381;DHT22;38310;52.796;6.942;2023-04-25T01:10:19;5.90;99.90
52381;DHT22;38310;52.796;6.942;2023-04-25T01:12:45;5.90;99.90
52381;DHT22;38310;52.796;6.942;2023-04-25T01:15:10;5.80;99.90
52381;DHT22;38310;52.796;6.942;2023-04-25T01:17:36;5.80;99.90
52381;DHT22;38310;52.796;6.942;2023-04-25T01:20:04;5.80;99.90
52381;DHT22;38310;52.796;6.942;2023-04-25T01:22:32;5.80;99.90
52381;DHT22;38310;52.796;6.942;2023-04-25T01:24:58;5.90;99.90
52381;DHT22;38310;52.796;6.942;2023-04-25T01:27:25;5.70;99.90
52381;DHT22;38310;52.796;6.942;2023-04-25T01:29:51;5.90;99.90
52381;DHT22;38310;52.796;6.942;2023-04-25T01:32:17;5.90;99.90
52381;DHT22;38310;52.796;6.942;2023-04-25T01:34:43;5.70;99.90
52381;DHT22;38310;52.796;6.942;2023-04-25T01:37:09;5.60;99.90
52381;DHT22;38310;52.796;6.942;2023-04-25T01:39:35;5.60;99.90
52381;DHT22;38310;52.796;6.942;2023-04-25T01:42:00;5.90;99.90
52381;DHT22;38310;52.796;6.942;2023-04-25T01:44:27;5.50;99.90
52381;DHT22;38310;52.796;6.942;2023-04-25T01:46:53;5.50;99.90
52381;DHT22;38310;52.796;6.942;2023-04-25T01:49:19;5.50;99.90
52381;DHT22;38310;52.796;6.942;2023-04-25T01:51:45;5.80;99.90
52381;DHT22;38310;52.796;6.942;2023-04-25T01:54:11;5.40;99.90
52381;DHT22;38310;52.796;6.942;2023-04-25T01:56:38;5.40;99.90
52381;DHT22;38310;52.796;6.942;2023-04-25T01:59:05;4.90;99.90
52381;DHT22;38310;52.796;6.942;2023-04-25T02:01:31;5.30;99.90
52381;DHT22;38310;52.796;6.942;2023-04-25T02:03:57;5.60;99.90
52381;DHT22;38310;52.796;6.942;2023-04-25T02:06:23;5.30;99.90
52381;DHT22;38310;52.796;6.942;2023-04-25T02:08:48;5.30;99.90
52381;DHT22;38310;52.796;6.942;2023-04-25T02:11:14;6.30;99.90
52381;DHT22;38310;52.796;6.942;2023-04-25T02:13:40;5.20;99.90
52381;DHT22;38310;52.796;6.942;2023-04-25T02:16:06;5.20;99.90
52381;DHT22;38310;52.796;6.942;2023-04-25T02:18:31;5.40;99.90
52381;DHT22;38310;52.796;6.942;2023-04-25T02:21:00;5.20;99.90
52381;DHT22;38310;52.796;6.942;2023-04-25T02:23:26;5.20;99.90
52381;DHT22;38310;52.796;6.942;2023-04-25T02:25:52;5.20;99.90
52381;DHT22;38310;52.796;6.942;2023-04-25T02:28:20;5.20;99.90
52381;DHT22;38310;52.796;6.942;2023-04-25T02:30:46;5.20;99.90
52381;DHT22;38310;52.796;6.942;2023-04-25T02:33:11;5.20;99.90
52381;DHT22;38310;52.796;6.942;2023-04-25T02:35:37;5.30;99.90
52381;DHT22;38310;52.796;6.942;2023-04-25T02:38:03;5.30;99.90
52381;DHT22;38310;52.796;6.942;2023-04-25T02:40:28;5.30;99.90
52381;DHT22;38310;52.796;6.942;2023-04-25T02:42:55;5.30;99.90
52381;DHT22;38310;52.796;6.942;2023-04-25T02:45:21;5.30;99.90
52381;DHT22;38310;52.796;6.942;2023-04-25T02:47:46;5.30;99.90
52381;DHT22;38310;52.796;6.942;2023-04-25T02:50:12;5.30;99.90
52381;DHT22;38310;52.796;6.942;2023-04-25T02:52:38;5.30;99.90
52381;DHT22;38310;52.796;6.942;2023-04-25T02:55:04;5.30;99.90
52381;DHT22;38310;52.796;6.942;2023-04-25T02:57:29;5.30;99.90
52381;DHT22;38310;52.796;6.942;2023-04-25T02:59:55;5.30;99.90
52381;DHT22;38310;52.796;6.942;2023-04-25T03:02:21;5.30;99.90
52381;DHT22;38310;52.796;6.942;2023-04-25T03:04:46;5.30;99.90
52381;DHT22;38310;52.796;6.942;2023-04-25T03:07:13;5.30;99.90
52381;DHT22;38310;52.796;6.942;2023-04-25T03:09:39;5.30;99.90
52381;DHT22;38310;52.796;6.942;2023-04-25T03:12:04;5.30;99.90
52381;DHT22;38310;52.796;6.942;2023-04-25T03:14:30;5.40;99.90
52381;DHT22;38310;52.796;6.942;2023-04-25T03:16:56;5.40;99.90
52381;DHT22;38310;52.796;6.942;2023-04-25T03:19:21;5.40;99.90
52381;DHT22;38310;52.796;6.942;2023-04-25T03:21:47;5.30;99.90
52381;DHT22;38310;52.796;6.942;2023-04-25T03:24:14;5.30;99.90
52381;DHT22;38310;52.796;6.942;2023-04-25T03:26:40;5.30;99.90
52381;DHT22;38310;52.796;6.942;2023-04-25T03:29:06;5.40;99.90
52381;DHT22;38310;52.796;6.942;2023-04-25T03:31:31;5.40;99.90
52381;DHT22;38310;52.796;6.942;2023-04-25T03:33:57;5.80;99.90
52381;DHT22;38310;52.796;6.942;2023-04-25T03:36:23;5.30;99.90
52381;DHT22;38310;52.796;6.942;2023-04-25T03:38:48;5.80;99.90
52381;DHT22;38310;52.796;6.942;2023-04-25T03:41:15;5.40;99.90
52381;DHT22;38310;52.796;6.942;2023-04-25T03:43:41;5.30;99.90
52381;DHT22;38310;52.796;6.942;2023-04-25T03:46:06;5.40;99.90
52381;DHT22;38310;52.796;6.942;2023-04-25T03:48:32;5.40;99.90
52381;DHT22;38310;52.796;6.942;2023-04-25T03:50:58;5.40;99.90
52381;DHT22;38310;52.796;6.942;2023-04-25T03:53:24;5.40;99.90
52381;DHT22;38310;52.796;6.942;2023-04-25T03:55:49;5.60;99.90
52381;DHT22;38310;52.796;6.942;2023-04-25T03:58:15;5.40;99.90
52381;DHT22;38310;52.796;6.942;2023-04-25T04:00:41;5.40;99.90
52381;DHT22;38310;52.796;6.942;2023-04-25T04:03:07;5.40;99.90
52381;DHT22;38310;52.796;6.942;2023-04-25T04:05:32;5.40;99.90
52381;DHT22;38310;52.796;6.942;2023-04-25T04:07:58;5.40;99.90
52381;DHT22;38310;52.796;6.942;2023-04-25T04:10:24;5.40;99.90
52381;DHT22;38310;52.796;6.942;2023-04-25T04:12:51;5.30;99.90
52381;DHT22;38310;52.796;6.942;2023-04-25T04:15:17;5.40;99.90
52381;DHT22;38310;52.796;6.942;2023-04-25T04:17:42;5.60;99.90
52381;DHT22;38310;52.796;6.942;2023-04-25T04:20:08;6.20;99.90
52381;DHT22;38310;52.796;6.942;2023-04-25T04:22:34;5.30;99.90
52381;DHT22;38310;52.796;6.942;2023-04-25T04:25:01;5.30;99.90
52381;DHT22;38310;52.796;6.942;2023-04-25T04:27:26;5.30;99.90
52381;DHT22;38310;52.796;6.942;2023-04-25T04:29:54;5.30;99.90
52381;DHT22;38310;52.796;6.942;2023-04-25T04:32:20;5.30;99.90
52381;DHT22;38310;52.796;6.942;2023-04-25T04:34:45;5.30;99.90
52381;DHT22;38310;52.796;6.942;2023-04-25T04:37:12;5.30;99.90
52381;DHT22;38310;52.796;6.942;2023-04-25T04:39:38;5.30;99.90
52381;DHT22;38310;52.796;6.942;2023-04-25T04:42:04;5.30;99.90
52381;DHT22;38310;52.796;6.942;2023-04-25T04:44:30;5.30;99.90
52381;DHT22;38310;52.796;6.942;2023-04-25T04:47:00;5.70;99.90
52381;DHT22;38310;52.796;6.942;2023-04-25T04:49:25;5.20;99.90
52381;DHT22;38310;52.796;6.942;2023-04-25T04:51:51;5.30;99.90
52381;DHT22;38310;52.796;6.942;2023-04-25T04:54:17;5.30;99.90
52381;DHT22;38310;52.796;6.942;2023-04-25T04:56:43;5.20;99.90
52381;DHT22;38310;52.796;6.942;2023-04-25T04:59:09;5.20;99.90
52381;DHT22;38310;52.796;6.942;2023-04-25T05:01:35;5.40;99.90
52381;DHT22;38310;52.796;6.942;2023-04-25T05:04:01;5.20;99.90
52381;DHT22;38310;52.796;6.942;2023-04-25T05:06:28;5.20;99.90
52381;DHT22;38310;52.796;6.942;2023-04-25T05:08:55;5.20;99.90
52381;DHT22;38310;52.796;6.942;2023-04-25T05:11:21;5.40;99.90
52381;DHT22;38310;52.796;6.942;2023-04-25T05:13:47;5.20;99.90
52381;DHT22;38310;52.796;6.942;2023-04-25T05:16:13;5.60;99.90
52381;DHT22;38310;52.796;6.942;2023-04-25T05:18:39;5.20;99.90
52381;DHT22;38310;52.796;6.942;2023-04-25T05:21:05;5.30;99.90
52381;DHT22;38310;52.796;6.942;2023-04-25T05:23:32;5.30;99.90
52381;DHT22;38310;52.796;6.942;2023-04-25T05:25:58;5.40;99.90
52381;DHT22;38310;52.796;6.942;2023-04-25T05:28:24;5.40;99.90
52381;DHT22;38310;52.796;6.942;2023-04-25T05:30:50;5.50;99.90
52381;DHT22;38310;52.796;6.942;2023-04-25T05:33:16;5.50;99.90
52381;DHT22;38310;52.796;6.942;2023-04-25T05:35:42;5.50;99.90
52381;DHT22;38310;52.796;6.942;2023-04-25T05:38:08;5.60;99.90
52381;DHT22;38310;52.796;6.942;2023-04-25T05:40:34;5.60;99.90
52381;DHT22;38310;52.796;6.942;2023-04-25T05:43:00;5.50;99.90
52381;DHT22;38310;52.796;6.942;2023-04-25T05:45:25;5.60;99.90
52381;DHT22;38310;52.796;6.942;2023-04-25T05:47:51;5.60;99.90
52381;DHT22;38310;52.796;6.942;2023-04-25T05:50:17;6.20;99.90
52381;DHT22;38310;52.796;6.942;2023-04-25T05:52:42;5.60;99.90
52381;DHT22;38310;52.796;6.942;2023-04-25T05:55:08;5.60;99.90
52381;DHT22;38310;52.796;6.942;2023-04-25T05:57:34;5.60;99.90
52381;DHT22;38310;52.796;6.942;2023-04-25T06:00:00;5.70;99.90
52381;DHT22;38310;52.796;6.942;2023-04-25T06:02:26;5.70;99.90
52381;DHT22;38310;52.796;6.942;2023-04-25T06:04:52;5.70;99.90
52381;DHT22;38310;52.796;6.942;2023-04-25T06:07:18;5.70;99.90
52381;DHT22;38310;52.796;6.942;2023-04-25T06:09:44;5.80;99.90
52381;DHT22;38310;52.796;6.942;2023-04-25T06:12:10;5.80;99.90
52381;DHT22;38310;52.796;6.942;2023-04-25T06:14:36;5.80;99.90
52381;DHT22;38310;52.796;6.942;2023-04-25T06:17:03;5.90;99.90
52381;DHT22;38310;52.796;6.942;2023-04-25T06:19:33;6.00;99.90
52381;DHT22;38310;52.796;6.942;2023-04-25T06:21:59;6.10;99.90
52381;DHT22;38310;52.796;6.942;2023-04-25T06:24:25;6.20;99.90
52381;DHT22;38310;52.796;6.942;2023-04-25T06:26:51;6.70;99.90
52381;DHT22;38310;52.796;6.942;2023-04-25T06:29:18;6.30;99.90
52381;DHT22;38310;52.796;6.942;2023-04-25T06:31:44;6.40;99.90
52381;DHT22;38310;52.796;6.942;2023-04-25T06:34:10;6.40;99.90
52381;DHT22;38310;52.796;6.942;2023-04-25T06:36:36;6.40;99.90
52381;DHT22;38310;52.796;6.942;2023-04-25T06:39:01;6.50;99.90
52381;DHT22;38310;52.796;6.942;2023-04-25T06:41:27;6.60;99.90
52381;DHT22;38310;52.796;6.942;2023-04-25T06:43:53;6.70;99.90
52381;DHT22;38310;52.796;6.942;2023-04-25T06:46:18;6.70;99.90
52381;DHT22;38310;52.796;6.942;2023-04-25T06:48:44;6.90;99.90
52381;DHT22;38310;52.796;6.942;2023-04-25T06:51:10;6.90;99.90
52381;DHT22;38310;52.796;6.942;2023-04-25T06:53:36;7.00;99.90
52381;DHT22;38310;52.796;6.942;2023-04-25T06:56:03;7.10;99.90
52381;DHT22;38310;52.796;6.942;2023-04-25T06:58:28;7.20;99.90
52381;DHT22;38310;52.796;6.942;2023-04-25T07:00:55;7.20;99.90
52381;DHT22;38310;52.796;6.942;2023-04-25T07:03:21;7.30;99.90
52381;DHT22;38310;52.796;6.942;2023-04-25T07:05:46;7.50;99.90
52381;DHT22;38310;52.796;6.942;2023-04-25T07:08:12;7.60;99.90
52381;DHT22;38310;52.796;6.942;2023-04-25T07:10:38;7.70;99.90
52381;DHT22;38310;52.796;6.942;2023-04-25T07:13:04;7.90;99.90
52381;DHT22;38310;52.796;6.942;2023-04-25T07:15:29;8.10;99.90
52381;DHT22;38310;52.796;6.942;2023-04-25T07:17:55;8.20;99.90
52381;DHT22;38310;52.796;6.942;2023-04-25T07:20:21;8.40;99.90
52381;DHT22;38310;52.796;6.942;2023-04-25T07:22:46;8.50;99.90
52381;DHT22;38310;52.796;6.942;2023-04-25T07:25:12;9.40;99.90
52381;DHT22;38310;52.796;6.942;2023-04-25T07:27:38;8.70;99.90
52381;DHT22;38310;52.796;6.942;2023-04-25T07:30:05;8.70;99.90
52381;DHT22;38310;52.796;6.942;2023-04-25T07:32:31;9.00;99.90
52381;DHT22;38310;52.796;6.942;2023-04-25T07:34:57;9.10;99.90
52381;DHT22;38310;52.796;6.942;2023-04-25T07:37:23;9.10;99.90
52381;DHT22;38310;52.796;6.942;2023-04-25T07:39:48;8.90;99.90
52381;DHT22;38310;52.796;6.942;2023-04-25T07:42:14;8.80;99.90
52381;DHT22;38310;52.796;6.942;2023-04-25T07:44:40;8.50;99.90
52381;DHT22;38310;52.796;6.942;2023-04-25T07:47:08;8.40;99.90
52381;DHT22;38310;52.796;6.942;2023-04-25T07:49:34;8.20;99.90
52381;DHT22;38310;52.796;6.942;2023-04-25T07:52:01;8.30;99.90
52381;DHT22;38310;52.796;6.942;2023-04-25T07:54:27;8.40;99.90
52381;DHT22;38310;52.796;6.942;2023-04-25T07:56:53;8.60;99.90
52381;DHT22;38310;52.796;6.942;2023-04-25T07:59:19;8.70;99.90
52381;DHT22;38310;52.796;6.942;2023-04-25T08:01:45;8.90;99.90
52381;DHT22;38310;52.796;6.942;2023-04-25T08:04:11;9.10;99.90
52381;DHT22;38310;52.796;6.942;2023-04-25T08:06:36;9.10;99.90
52381;DHT22;38310;52.796;6.942;2023-04-25T08:09:02;9.10;99.90
52381;DHT22;38310;52.796;6.942;2023-04-25T08:11:28;9.60;99.90
52381;DHT22;38310;52.796;6.942;2023-04-25T08:13:54;9.50;99.90
52381;DHT22;38310;52.796;6.942;2023-04-25T08:16:20;9.70;99.90
52381;DHT22;38310;52.796;6.942;2023-04-25T08:18:45;9.90;99.90
52381;DHT22;38310;52.796;6.942;2023-04-25T08:21:11;9.70;99.90
52381;DHT22;38310;52.796;6.942;2023-04-25T08:23:38;9.40;99.90
52381;DHT22;38310;52.796;6.942;2023-04-25T08:26:04;9.10;99.90
52381;DHT22;38310;52.796;6.942;2023-04-25T08:28:30;9.10;99.90
52381;DHT22;38310;52.796;6.942;2023-04-25T08:30:56;9.00;99.90
52381;DHT22;38310;52.796;6.942;2023-04-25T08:33:22;9.10;99.90
52381;DHT22;38310;52.796;6.942;2023-04-25T08:35:48;9.40;99.90
52381;DHT22;38310;52.796;6.942;2023-04-25T08:38:14;9.90;99.90
52381;DHT22;38310;52.796;6.942;2023-04-25T08:40:40;10.10;99.90
52381;DHT22;38310;52.796;6.942;2023-04-25T08:43:07;10.40;99.90
52381;DHT22;38310;52.796;6.942;2023-04-25T08:45:39;10.50;99.90
52381;DHT22;38310;52.796;6.942;2023-04-25T08:48:13;10.20;99.90
52381;DHT22;38310;52.796;6.942;2023-04-25T08:50:49;10.10;99.90
52381;DHT22;38310;52.796;6.942;2023-04-25T08:53:17;9.70;99.90
52381;DHT22;38310;52.796;6.942;2023-04-25T08:55:46;9.20;99.90
52381;DHT22;38310;52.796;6.942;2023-04-25T08:58:12;8.80;99.90
52381;DHT22;38310;52.796;6.942;2023-04-25T09:00:38;8.50;99.90
52381;DHT22;38310;52.796;6.942;2023-04-25T09:03:04;8.30;99.90
52381;DHT22;38310;52.796;6.942;2023-04-25T09:05:34;7.80;99.90
52381;DHT22;38310;52.796;6.942;2023-04-25T09:08:01;7.90;99.90
52381;DHT22;38310;52.796;6.942;2023-04-25T09:10:27;7.80;99.90
52381;DHT22;38310;52.796;6.942;2023-04-25T09:13:10;8.20;99.90
52381;DHT22;38310;52.796;6.942;2023-04-25T09:18:30;8.70;99.90
52381;DHT22;38310;52.796;6.942;2023-04-25T09:21:17;8.80;99.90
52381;DHT22;38310;52.796;6.942;2023-04-25T09:23:47;9.20;99.90
52381;DHT22;38310;52.796;6.942;2023-04-25T09:26:20;9.50;99.90
52381;DHT22;38310;52.796;6.942;2023-04-25T09:28:46;9.80;99.90
52381;DHT22;38310;52.796;6.942;2023-04-25T09:31:24;10.10;99.90
52381;DHT22;38310;52.796;6.942;2023-04-25T09:33:59;10.50;99.90
52381;DHT22;38310;52.796;6.942;2023-04-25T09:36:27;10.80;99.90
52381;DHT22;38310;52.796;6.942;2023-04-25T09:38:53;10.70;99.90
52381;DHT22;38310;52.796;6.942;2023-04-25T09:41:23;10.70;99.90
52381;DHT22;38310;52.796;6.942;2023-04-25T09:43:49;10.50;99.90
52381;DHT22;38310;52.796;6.942;2023-04-25T09:46:16;10.30;99.90
52381;DHT22;38310;52.796;6.942;2023-04-25T09:48:49;10.00;99.90
52381;DHT22;38310;52.796;6.942;2023-04-25T09:51:15;10.20;99.90
52381;DHT22;38310;52.796;6.942;2023-04-25T09:53:46;10.10;99.90
52381;DHT22;38310;52.796;6.942;2023-04-25T09:56:12;9.70;99.90
52381;DHT22;38310;52.796;6.942;2023-04-25T09:58:42;9.80;99.90
52381;DHT22;38310;52.796;6.942;2023-04-25T10:01:09;9.60;99.90
52381;DHT22;38310;52.796;6.942;2023-04-25T10:03:38;9.40;99.90
52381;DHT22;38310;52.796;6.942;2023-04-25T10:06:11;9.30;99.90
52381;DHT22;38310;52.796;6.942;2023-04-25T10:08:38;9.40;99.90
52381;DHT22;38310;52.796;6.942;2023-04-25T10:11:05;9.50;99.90
52381;DHT22;38310;52.796;6.942;2023-04-25T10:13:33;9.50;99.90
52381;DHT22;38310;52.796;6.942;2023-04-25T10:16:01;9.40;99.90
52381;DHT22;38310;52.796;6.942;2023-04-25T10:18:28;9.50;99.90
52381;DHT22;38310;52.796;6.942;2023-04-25T10:21:00;9.70;99.90
52381;DHT22;38310;52.796;6.942;2023-04-25T10:23:26;9.60;99.90
52381;DHT22;38310;52.796;6.942;2023-04-25T10:25:53;9.90;99.90
52381;DHT22;38310;52.796;6.942;2023-04-25T10:28:19;10.30;99.90
52381;DHT22;38310;52.796;6.942;2023-04-25T10:31:00;10.60;99.90
52381;DHT22;38310;52.796;6.942;2023-04-25T10:33:36;11.00;99.90
52381;DHT22;38310;52.796;6.942;2023-04-25T10:36:12;11.40;99.90
52381;DHT22;38310;52.796;6.942;2023-04-25T10:38:39;12.10;99.90
52381;DHT22;38310;52.796;6.942;2023-04-25T10:41:06;12.40;99.90
52381;DHT22;38310;52.796;6.942;2023-04-25T10:43:48;11.70;99.90
52381;DHT22;38310;52.796;6.942;2023-04-25T10:46:19;11.00;99.90
52381;DHT22;38310;52.796;6.942;2023-04-25T10:49:01;9.90;99.90
52381;DHT22;38310;52.796;6.942;2023-04-25T10:51:32;9.30;99.90
52381;DHT22;38310;52.796;6.942;2023-04-25T10:54:02;9.00;99.90
52381;DHT22;38310;52.796;6.942;2023-04-25T10:59:08;8.90;99.90
52381;DHT22;38310;52.796;6.942;2023-04-25T11:04:02;9.30;99.90
52381;DHT22;38310;52.796;6.942;2023-04-25T11:09:01;10.10;99.90
52381;DHT22;38310;52.796;6.942;2023-04-25T11:11:29;10.50;99.90
52381;DHT22;38310;52.796;6.942;2023-04-25T11:13:54;10.40;99.90
52381;DHT22;38310;52.796;6.942;2023-04-25T11:16:24;11.10;99.90
52381;DHT22;38310;52.796;6.942;2023-04-25T11:18:50;11.30;99.90
52381;DHT22;38310;52.796;6.942;2023-04-25T11:21:16;11.50;99.90
52381;DHT22;38310;52.796;6.942;2023-04-25T11:23:45;11.90;99.90
52381;DHT22;38310;52.796;6.942;2023-04-25T11:26:13;12.30;99.90
52381;DHT22;38310;52.796;6.942;2023-04-25T11:28:39;11.80;99.90
52381;DHT22;38310;52.796;6.942;2023-04-25T11:31:05;12.10;99.90
52381;DHT22;38310;52.796;6.942;2023-04-25T11:33:31;12.00;99.90
52381;DHT22;38310;52.796;6.942;2023-04-25T11:35:57;11.80;99.90
52381;DHT22;38310;52.796;6.942;2023-04-25T11:38:24;11.70;99.90
52381;DHT22;38310;52.796;6.942;2023-04-25T11:40:52;11.60;99.90
52381;DHT22;38310;52.796;6.942;2023-04-25T11:43:20;11.20;99.90
52381;DHT22;38310;52.796;6.942;2023-04-25T11:45:51;11.20;99.90
52381;DHT22;38310;52.796;6.942;2023-04-25T11:48:18;10.80;99.90
52381;DHT22;38310;52.796;6.942;2023-04-25T11:50:44;10.10;99.90
52381;DHT22;38310;52.796;6.942;2023-04-25T11:53:10;9.70;99.90
52381;DHT22;38310;52.796;6.942;2023-04-25T11:55:37;9.30;99.90
52381;DHT22;38310;52.796;6.942;2023-04-25T11:58:04;9.10;99.90
52381;DHT22;38310;52.796;6.942;2023-04-25T12:00:30;9.20;99.90
52381;DHT22;38310;52.796;6.942;2023-04-25T12:02:57;9.30;99.90
52381;DHT22;38310;52.796;6.942;2023-04-25T12:05:25;9.90;99.90
52381;DHT22;38310;52.796;6.942;2023-04-25T12:07:51;10.60;99.90
52381;DHT22;38310;52.796;6.942;2023-04-25T12:10:18;10.80;99.90
52381;DHT22;38310;52.796;6.942;2023-04-25T12:12:45;11.20;99.90
52381;DHT22;38310;52.796;6.942;2023-04-25T12:15:13;11.40;99.90
52381;DHT22;38310;52.796;6.942;2023-04-25T12:17:47;11.40;99.90
52381;DHT22;38310;52.796;6.942;2023-04-25T12:20:15;11.70;99.90
52381;DHT22;38310;52.796;6.942;2023-04-25T12:22:45;11.70;99.90
52381;DHT22;38310;52.796;6.942;2023-04-25T12:25:41;11.70;99.90
52381;DHT22;38310;52.796;6.942;2023-04-25T12:28:15;11.70;99.90
52381;DHT22;38310;52.796;6.942;2023-04-25T12:33:21;12.00;99.90
52381;DHT22;38310;52.796;6.942;2023-04-25T12:35:47;12.40;99.90
52381;DHT22;38310;52.796;6.942;2023-04-25T12:38:35;12.80;99.90
52381;DHT22;38310;52.796;6.942;2023-04-25T12:41:01;12.90;99.90
52381;DHT22;38310;52.796;6.942;2023-04-25T12:43:27;12.60;99.90
52381;DHT22;38310;52.796;6.942;2023-04-25T12:45:54;12.50;99.90
52381;DHT22;38310;52.796;6.942;2023-04-25T12:48:20;12.10;99.90
52381;DHT22;38310;52.796;6.942;2023-04-25T12:50:46;12.10;99.90
52381;DHT22;38310;52.796;6.942;2023-04-25T12:53:24;11.90;99.90
52381;DHT22;38310;52.796;6.942;2023-04-25T12:55:50;11.70;99.90
52381;DHT22;38310;52.796;6.942;2023-04-25T12:58:18;11.30;99.90
52381;DHT22;38310;52.796;6.942;2023-04-25T13:00:45;10.90;99.90
52381;DHT22;38310;52.796;6.942;2023-04-25T13:03:11;10.50;99.90
52381;DHT22;38310;52.796;6.942;2023-04-25T13:05:38;10.20;99.90
52381;DHT22;38310;52.796;6.942;2023-04-25T13:08:04;10.30;99.90
52381;DHT22;38310;52.796;6.942;2023-04-25T13:10:30;10.30;99.90
52381;DHT22;38310;52.796;6.942;2023-04-25T13:12:56;10.80;99.90
52381;DHT22;38310;52.796;6.942;2023-04-25T13:15:22;11.20;99.90
52381;DHT22;38310;52.796;6.942;2023-04-25T13:17:48;11.10;99.90
52381;DHT22;38310;52.796;6.942;2023-04-25T13:20:14;11.30;99.90
52381;DHT22;38310;52.796;6.942;2023-04-25T13:22:41;11.00;99.90
52381;DHT22;38310;52.796;6.942;2023-04-25T13:25:08;11.00;99.90
52381;DHT22;38310;52.796;6.942;2023-04-25T13:27:35;10.80;99.90
52381;DHT22;38310;52.796;6.942;2023-04-25T13:30:05;10.80;99.90
52381;DHT22;38310;52.796;6.942;2023-04-25T13:32:36;10.80;99.90
52381;DHT22;38310;52.796;6.942;2023-04-25T13:35:04;11.10;99.90
52381;DHT22;38310;52.796;6.942;2023-04-25T13:37:30;11.60;99.90
52381;DHT22;38310;52.796;6.942;2023-04-25T13:39:59;11.60;99.90
52381;DHT22;38310;52.796;6.942;2023-04-25T13:42:25;11.90;99.90
52381;DHT22;38310;52.796;6.942;2023-04-25T13:44:51;11.80;99.90
52381;DHT22;38310;52.796;6.942;2023-04-25T13:47:17;11.50;99.90
52381;DHT22;38310;52.796;6.942;2023-04-25T13:49:43;11.70;99.90
52381;DHT22;38310;52.796;6.942;2023-04-25T13:52:08;11.70;99.90
52381;DHT22;38310;52.796;6.942;2023-04-25T13:54:37;11.90;99.90
52381;DHT22;38310;52.796;6.942;2023-04-25T13:57:03;11.90;99.90
52381;DHT22;38310;52.796;6.942;2023-04-25T13:59:28;12.10;99.90
52381;DHT22;38310;52.796;6.942;2023-04-25T14:01:54;12.20;99.90
52381;DHT22;38310;52.796;6.942;2023-04-25T14:04:20;12.30;99.90
52381;DHT22;38310;52.796;6.942;2023-04-25T14:06:45;12.20;99.90
52381;DHT22;38310;52.796;6.942;2023-04-25T14:09:11;12.20;99.90
52381;DHT22;38310;52.796;6.942;2023-04-25T14:11:38;12.10;99.90
52381;DHT22;38310;52.796;6.942;2023-04-25T14:14:04;11.80;99.90
52381;DHT22;38310;52.796;6.942;2023-04-25T14:16:30;11.60;99.90
52381;DHT22;38310;52.796;6.942;2023-04-25T14:18:59;10.50;99.90
52381;DHT22;38310;52.796;6.942;2023-04-25T14:21:26;10.20;99.90
52381;DHT22;38310;52.796;6.942;2023-04-25T14:23:52;10.00;99.90
52381;DHT22;38310;52.796;6.942;2023-04-25T14:26:18;9.80;99.90
52381;DHT22;38310;52.796;6.942;2023-04-25T14:28:44;9.80;99.90
52381;DHT22;38310;52.796;6.942;2023-04-25T14:31:10;9.70;99.90
52381;DHT22;38310;52.796;6.942;2023-04-25T14:33:35;9.90;99.90
52381;DHT22;38310;52.796;6.942;2023-04-25T14:36:02;10.10;99.90
52381;DHT22;38310;52.796;6.942;2023-04-25T14:38:28;10.20;99.90
52381;DHT22;38310;52.796;6.942;2023-04-25T14:40:54;10.40;99.90
52381;DHT22;38310;52.796;6.942;2023-04-25T14:43:20;10.40;99.90
52381;DHT22;38310;52.796;6.942;2023-04-25T14:45:45;10.50;99.90
52381;DHT22;38310;52.796;6.942;2023-04-25T14:48:11;10.40;99.90
52381;DHT22;38310;52.796;6.942;2023-04-25T14:50:37;10.50;99.90
52381;DHT22;38310;52.796;6.942;2023-04-25T14:53:03;10.40;99.90
52381;DHT22;38310;52.796;6.942;2023-04-25T14:55:29;10.50;99.90
52381;DHT22;38310;52.796;6.942;2023-04-25T14:57:54;10.70;99.90
52381;DHT22;38310;52.796;6.942;2023-04-25T15:00:21;10.80;99.90
52381;DHT22;38310;52.796;6.942;2023-04-25T15:02:50;10.80;99.90
52381;DHT22;38310;52.796;6.942;2023-04-25T15:05:16;11.10;99.90
52381;DHT22;38310;52.796;6.942;2023-04-25T15:07:43;10.60;99.90
52381;DHT22;38310;52.796;6.942;2023-04-25T15:10:10;10.70;99.90
52381;DHT22;38310;52.796;6.942;2023-04-25T15:12:41;10.90;99.90
52381;DHT22;38310;52.796;6.942;2023-04-25T15:15:08;10.70;99.90
52381;DHT22;38310;52.796;6.942;2023-04-25T15:17:38;10.90;99.90
52381;DHT22;38310;52.796;6.942;2023-04-25T15:20:11;10.70;99.90
52381;DHT22;38310;52.796;6.942;2023-04-25T15:22:38;10.60;99.90
52381;DHT22;38310;52.796;6.942;2023-04-25T15:25:04;10.70;99.90
52381;DHT22;38310;52.796;6.942;2023-04-25T15:27:30;10.90;99.90
52381;DHT22;38310;52.796;6.942;2023-04-25T15:29:56;10.80;99.90
52381;DHT22;38310;52.796;6.942;2023-04-25T15:32:22;10.70;99.90
52381;DHT22;38310;52.796;6.942;2023-04-25T15:34:48;10.80;99.90
52381;DHT22;38310;52.796;6.942;2023-04-25T15:37:15;10.80;99.90
52381;DHT22;38310;52.796;6.942;2023-04-25T15:39:41;10.60;99.90
52381;DHT22;38310;52.796;6.942;2023-04-25T15:42:07;10.50;99.90
52381;DHT22;38310;52.796;6.942;2023-04-25T15:44:33;10.50;99.90
52381;DHT22;38310;52.796;6.942;2023-04-25T15:46:58;10.40;99.90
52381;DHT22;38310;52.796;6.942;2023-04-25T15:49:24;10.20;99.90
52381;DHT22;38310;52.796;6.942;2023-04-25T15:51:50;10.20;99.90